Disclaimer

Please do not use the information listed here in-flight or in-navigation, as they are not provided to us by the airports but are provided by volunteers, so they might be outdated.

Search


Regions


Airport information page

No radio frequency information is available.

Airport informations:
Latitude: 55° 55' 18.07" N
Longitude: 014° 05' 07.93" E
Elevation: 76 feet - 23 meters
Operating hours: Remarks
Operating agency: Civil government, landing fees and diplomatic clearance may be required
Timezone: UTC+1(+2DT) - Last Sunday in March to last Sunday in October
Fuel: Jet A1, without icing nhibitor.

100/130 MIL Spec, low lead, aviation gasoline (BLUE)

Runway information:
01/19 - 7267 x 148 feet< - >2215 x 45 meters

Recent METARs:
ESMK 202220Z AUTO 09013KT 9999 FEW018/// SCT024/// BKN042/// 04/02 Q1026 RERA
ESMK 202250Z AUTO 09014KT 9999 FEW021/// SCT024/// BKN028/// 05/02 Q1026
ESMK 202320Z AUTO 09014KT 9999 -RA SCT019/// BKN025/// 05/02 Q1026

Airport on the map: